This is the latest recevied weather packets stored in our database for station/object EA2RCU-15. If no packets are shown the sender has not sent any weather packets the latest 10 day(s).
| Time | Temp. | Humidity | Pressure | Rain* | Wind** | Luminosity | Snow |
|---|---|---|---|---|---|---|---|
| 1777233904 | 16.67° C | 56% | 1003 hPa | 0 mm | - | - | - |
| 1777233604 | 16.67° C | 55% | 1003 hPa | 0 mm | - | - | - |
| 1777233305 | 17.22° C | 54% | 1003 hPa | 0 mm | - | - | - |
| 1777233004 | 17.22° C | 53% | 1003 hPa | 0 mm | - | - | - |
| 1777232704 | 17.22° C | 53% | 1003 hPa | 0 mm | - | - | - |
| 1777232404 | 17.22° C | 52% | 1003 hPa | 0 mm | - | - | - |
| 1777232104 | 17.78° C | 51% | 1003 hPa | 0 mm | - | - | - |
| 1777231805 | 17.78° C | 51% | 1003 hPa | 0 mm | - | - | - |
| 1777231505 | 17.78° C | 50% | 1002 hPa | 0 mm | - | - | - |
| 1777231204 | 18.33° C | 49% | 1002 hPa | 0 mm | - | - | - |
| 1777230904 | 18.33° C | 49% | 1002 hPa | 0 mm | - | - | - |
| 1777230605 | 18.33° C | 48% | 1002 hPa | 0 mm | - | - | - |
| 1777230305 | 18.89° C | 47% | 1002 hPa | 0 mm | - | - | - |
| 1777230004 | 18.89° C | 45% | 1002 hPa | 0 mm | - | - | - |
| 1777229704 | 19.44° C | 45% | 1002 hPa | 0 mm | - | - | - |
| 1777229405 | 19.44° C | 44% | 1002 hPa | 0 mm | - | - | - |
| 1777229104 | 20° C | 42% | 1002 hPa | 0 mm | - | - | - |
| 1777228804 | 20.56° C | 41% | 1002 hPa | 0 mm | - | - | - |
| 1777228504 | 20.56° C | 39% | 1002 hPa | 0 mm | - | - | - |
| 1777228205 | 21.11° C | 38% | 1002 hPa | 0 mm | - | - | - |
| 1777227905 | 21.11° C | 35% | 1002 hPa | 0 mm | - | - | - |
| 1777227604 | 22.22° C | 33% | 1002 hPa | 0 mm | - | - | - |
| 1777227305 | 23.33° C | 31% | 1002 hPa | 0 mm | - | - | - |
| 1777227005 | 25° C | 26% | 1002 hPa | 0 mm | - | - | - |
| 1777226704 | 27.78° C | 22% | 1002 hPa | 0 mm | - | - | - |
* Rain latest hour (hover to see other rain measurements)
** Current wind speed in m/s (hover to see current wind gust speed)